sensor_id;sensor_type;location;lat;lon;timestamp;pressure;altitude;pressure_sealevel;temperature;humidity
68628;BME280;55611;48.602;9.490;2024-02-26T00:01:36;94970;;;13.4;57
68628;BME280;55611;48.602;9.490;2024-02-26T00:04:07;94960;;;13.4;57
68628;BME280;55611;48.602;9.490;2024-02-26T00:06:38;94960;;;13.4;56.5
68628;BME280;55611;48.602;9.490;2024-02-26T00:09:09;94960;;;13.5;56.5
68628;BME280;55611;48.602;9.490;2024-02-26T00:11:40;94970;;;13.5;56.5
68628;BME280;55611;48.602;9.490;2024-02-26T00:14:10;94970;;;13.4;56.5
68628;BME280;55611;48.602;9.490;2024-02-26T00:16:41;94980;;;13.5;56.5
68628;BME280;55611;48.602;9.490;2024-02-26T00:19:12;94980;;;13.5;56.5
68628;BME280;55611;48.602;9.490;2024-02-26T00:21:43;94970;;;13.5;56.5
68628;BME280;55611;48.602;9.490;2024-02-26T00:24:14;94980;;;13.4;56.5
68628;BME280;55611;48.602;9.490;2024-02-26T00:26:44;94980;;;13.5;56
68628;BME280;55611;48.602;9.490;2024-02-26T00:29:15;94990;;;13.5;56
68628;BME280;55611;48.602;9.490;2024-02-26T00:31:46;94980;;;13.6;56
68628;BME280;55611;48.602;9.490;2024-02-26T00:34:16;94990;;;13.6;56
68628;BME280;55611;48.602;9.490;2024-02-26T00:36:47;94990;;;13.6;56
68628;BME280;55611;48.602;9.490;2024-02-26T00:39:18;94990;;;13.6;56
68628;BME280;55611;48.602;9.490;2024-02-26T00:41:49;95000;;;13.3;56
68628;BME280;55611;48.602;9.490;2024-02-26T00:44:20;95000;;;13.1;56
68628;BME280;55611;48.602;9.490;2024-02-26T00:46:50;95000;;;12.8;56
68628;BME280;55611;48.602;9.490;2024-02-26T00:49:21;95000;;;12.5;56
68628;BME280;55611;48.602;9.490;2024-02-26T00:51:52;95000;;;12.3;56
68628;BME280;55611;48.602;9.490;2024-02-26T00:54:23;95000;;;12.1;56
68628;BME280;55611;48.602;9.490;2024-02-26T00:56:53;95000;;;12;56
68628;BME280;55611;48.602;9.490;2024-02-26T00:59:24;95000;;;12;55.5
68628;BME280;55611;48.602;9.490;2024-02-26T01:01:55;95000;;;11.9;55.5
68628;BME280;55611;48.602;9.490;2024-02-26T01:04:26;94990;;;11.9;55.5
68628;BME280;55611;48.602;9.490;2024-02-26T01:06:57;94990;;;11.9;55.5
68628;BME280;55611;48.602;9.490;2024-02-26T01:09:27;94990;;;11.8;55.5
68628;BME280;55611;48.602;9.490;2024-02-26T01:11:58;94990;;;11.8;55.5
68628;BME280;55611;48.602;9.490;2024-02-26T01:14:29;94990;;;11.8;55.5
68628;BME280;55611;48.602;9.490;2024-02-26T01:17:00;94990;;;11.8;56
68628;BME280;55611;48.602;9.490;2024-02-26T01:19:30;94990;;;11.8;56
68628;BME280;55611;48.602;9.490;2024-02-26T01:22:01;94990;;;11.8;56
68628;BME280;55611;48.602;9.490;2024-02-26T01:24:32;94990;;;11.8;56
68628;BME280;55611;48.602;9.490;2024-02-26T01:27:03;94990;;;11.9;56
68628;BME280;55611;48.602;9.490;2024-02-26T01:29:34;94990;;;11.9;56
68628;BME280;55611;48.602;9.490;2024-02-26T01:32:04;94990;;;11.9;56
68628;BME280;55611;48.602;9.490;2024-02-26T01:34:35;94990;;;12;56
68628;BME280;55611;48.602;9.490;2024-02-26T01:37:06;94980;;;11.9;56
68628;BME280;55611;48.602;9.490;2024-02-26T01:39:37;94980;;;12;55.5
68628;BME280;55611;48.602;9.490;2024-02-26T01:42:07;94980;;;11.9;56
68628;BME280;55611;48.602;9.490;2024-02-26T01:44:38;94980;;;11.8;56
68628;BME280;55611;48.602;9.490;2024-02-26T01:47:10;94980;;;11.7;55.5
68628;BME280;55611;48.602;9.490;2024-02-26T01:49:40;94980;;;11.7;55.5
68628;BME280;55611;48.602;9.490;2024-02-26T01:52:11;94990;;;11.6;56
68628;BME280;55611;48.602;9.490;2024-02-26T01:54:41;94990;;;11.7;56
68628;BME280;55611;48.602;9.490;2024-02-26T01:57:12;95000;;;11.5;56
68628;BME280;55611;48.602;9.490;2024-02-26T01:59:43;95000;;;11.4;56
68628;BME280;55611;48.602;9.490;2024-02-26T02:02:14;95000;;;11.4;56
68628;BME280;55611;48.602;9.490;2024-02-26T02:04:44;95010;;;11.3;56
68628;BME280;55611;48.602;9.490;2024-02-26T02:07:15;95020;;;11.4;56
68628;BME280;55611;48.602;9.490;2024-02-26T02:09:46;95020;;;11.4;56
68628;BME280;55611;48.602;9.490;2024-02-26T02:12:17;95010;;;11.4;56
68628;BME280;55611;48.602;9.490;2024-02-26T02:14:47;95010;;;11.6;56
68628;BME280;55611;48.602;9.490;2024-02-26T02:17:19;95000;;;11.8;56
68628;BME280;55611;48.602;9.490;2024-02-26T02:19:49;95000;;;11.8;56
68628;BME280;55611;48.602;9.490;2024-02-26T02:22:20;95000;;;11.8;56
68628;BME280;55611;48.602;9.490;2024-02-26T02:24:52;95000;;;11.9;55.5
68628;BME280;55611;48.602;9.490;2024-02-26T02:27:21;95010;;;11.9;55.5
68628;BME280;55611;48.602;9.490;2024-02-26T02:29:52;95030;;;11.8;55.5
68628;BME280;55611;48.602;9.490;2024-02-26T02:32:23;95030;;;11.7;55.5
68628;BME280;55611;48.602;9.490;2024-02-26T02:34:54;95040;;;11.7;55.5
68628;BME280;55611;48.602;9.490;2024-02-26T02:37:24;95050;;;11.7;55.5
68628;BME280;55611;48.602;9.490;2024-02-26T02:39:55;95040;;;11.7;55.5
68628;BME280;55611;48.602;9.490;2024-02-26T02:42:26;95050;;;11.7;55.5
68628;BME280;55611;48.602;9.490;2024-02-26T02:44:57;95040;;;11.6;55.5
68628;BME280;55611;48.602;9.490;2024-02-26T02:47:28;95040;;;11.6;55.5
68628;BME280;55611;48.602;9.490;2024-02-26T02:49:58;95050;;;11.5;55.5
68628;BME280;55611;48.602;9.490;2024-02-26T02:52:29;95050;;;11.5;55.5
68628;BME280;55611;48.602;9.490;2024-02-26T02:55:00;95040;;;11.5;55.5
68628;BME280;55611;48.602;9.490;2024-02-26T02:57:31;95040;;;11.4;55.5
68628;BME280;55611;48.602;9.490;2024-02-26T03:00:01;95040;;;11.4;55.5
68628;BME280;55611;48.602;9.490;2024-02-26T03:02:32;95030;;;11.4;56
68628;BME280;55611;48.602;9.490;2024-02-26T03:05:03;95020;;;11.4;56
68628;BME280;55611;48.602;9.490;2024-02-26T03:10:05;95020;;;11.4;56
68628;BME280;55611;48.602;9.490;2024-02-26T03:12:35;95030;;;11.5;56
68628;BME280;55611;48.602;9.490;2024-02-26T03:15:06;95030;;;11.4;56
68628;BME280;55611;48.602;9.490;2024-02-26T03:17:37;95030;;;11.4;56
68628;BME280;55611;48.602;9.490;2024-02-26T03:20:08;95030;;;11.3;56
68628;BME280;55611;48.602;9.490;2024-02-26T03:22:39;95040;;;11.2;56
68628;BME280;55611;48.602;9.490;2024-02-26T03:25:09;95040;;;11.1;56
68628;BME280;55611;48.602;9.490;2024-02-26T03:27:40;95040;;;11;56
68628;BME280;55611;48.602;9.490;2024-02-26T03:30:11;95040;;;11.1;56
68628;BME280;55611;48.602;9.490;2024-02-26T03:32:41;95040;;;11.1;56
68628;BME280;55611;48.602;9.490;2024-02-26T03:35:12;95040;;;11.1;56
68628;BME280;55611;48.602;9.490;2024-02-26T03:37:43;95040;;;11.1;56
68628;BME280;55611;48.602;9.490;2024-02-26T03:40:14;95050;;;11.1;56
68628;BME280;55611;48.602;9.490;2024-02-26T03:42:45;95050;;;11.2;56
68628;BME280;55611;48.602;9.490;2024-02-26T03:45:15;95040;;;11.2;56
68628;BME280;55611;48.602;9.490;2024-02-26T03:47:46;95050;;;11.2;56
68628;BME280;55611;48.602;9.490;2024-02-26T03:50:17;95060;;;11.1;56
68628;BME280;55611;48.602;9.490;2024-02-26T03:52:48;95060;;;11.1;56
68628;BME280;55611;48.602;9.490;2024-02-26T03:55:18;95070;;;11.1;56
68628;BME280;55611;48.602;9.490;2024-02-26T03:57:49;95070;;;11;56
68628;BME280;55611;48.602;9.490;2024-02-26T04:00:20;95060;;;11;56
68628;BME280;55611;48.602;9.490;2024-02-26T04:02:51;95050;;;11;56
68628;BME280;55611;48.602;9.490;2024-02-26T04:05:22;95030;;;11;56.5
68628;BME280;55611;48.602;9.490;2024-02-26T04:07:52;95040;;;10.9;56.5
68628;BME280;55611;48.602;9.490;2024-02-26T04:10:23;95030;;;10.9;56.5
68628;BME280;55611;48.602;9.490;2024-02-26T04:12:54;95010;;;10.9;56.5
68628;BME280;55611;48.602;9.490;2024-02-26T04:15:25;95010;;;10.9;56.5
68628;BME280;55611;48.602;9.490;2024-02-26T04:17:55;95010;;;10.8;56.5
68628;BME280;55611;48.602;9.490;2024-02-26T04:20:26;95000;;;10.7;56.5
68628;BME280;55611;48.602;9.490;2024-02-26T04:22:57;94990;;;10.7;56.5
68628;BME280;55611;48.602;9.490;2024-02-26T04:25:28;95010;;;10.7;56.5
68628;BME280;55611;48.602;9.490;2024-02-26T04:27:59;95020;;;10.8;56.5
68628;BME280;55611;48.602;9.490;2024-02-26T04:30:29;95030;;;10.8;56.5
68628;BME280;55611;48.602;9.490;2024-02-26T04:33:00;95050;;;10.9;56.5
68628;BME280;55611;48.602;9.490;2024-02-26T04:35:31;95020;;;10.9;56.5
68628;BME280;55611;48.602;9.490;2024-02-26T04:38:02;95030;;;11.2;56.5
68628;BME280;55611;48.602;9.490;2024-02-26T04:40:32;95030;;;11.3;56.5
68628;BME280;55611;48.602;9.490;2024-02-26T04:43:03;95040;;;11.2;56.5
68628;BME280;55611;48.602;9.490;2024-02-26T04:45:34;95040;;;11.2;56.5
68628;BME280;55611;48.602;9.490;2024-02-26T04:48:05;95040;;;11.2;56
68628;BME280;55611;48.602;9.490;2024-02-26T04:50:36;95040;;;11.2;56
68628;BME280;55611;48.602;9.490;2024-02-26T04:53:06;95040;;;11.1;56
68628;BME280;55611;48.602;9.490;2024-02-26T04:55:37;95030;;;11.1;56
68628;BME280;55611;48.602;9.490;2024-02-26T04:58:08;95030;;;11.1;56
68628;BME280;55611;48.602;9.490;2024-02-26T05:00:39;95020;;;11.1;56
68628;BME280;55611;48.602;9.490;2024-02-26T05:03:09;95020;;;11.1;56
68628;BME280;55611;48.602;9.490;2024-02-26T05:05:40;95020;;;11.1;56
68628;BME280;55611;48.602;9.490;2024-02-26T05:08:11;95010;;;11;56
68628;BME280;55611;48.602;9.490;2024-02-26T05:10:42;95010;;;11;56
68628;BME280;55611;48.602;9.490;2024-02-26T05:13:12;95000;;;11;56
68628;BME280;55611;48.602;9.490;2024-02-26T05:15:43;95010;;;10.9;56
68628;BME280;55611;48.602;9.490;2024-02-26T05:18:14;95000;;;10.9;56
68628;BME280;55611;48.602;9.490;2024-02-26T05:20:45;95000;;;10.9;56
68628;BME280;55611;48.602;9.490;2024-02-26T05:23:16;95000;;;10.9;56
68628;BME280;55611;48.602;9.490;2024-02-26T05:25:46;95000;;;10.8;56
68628;BME280;55611;48.602;9.490;2024-02-26T05:28:17;95000;;;10.9;56
68628;BME280;55611;48.602;9.490;2024-02-26T05:30:48;95000;;;10.9;56
68628;BME280;55611;48.602;9.490;2024-02-26T05:33:19;95000;;;10.9;56
68628;BME280;55611;48.602;9.490;2024-02-26T05:35:49;95010;;;10.9;56
68628;BME280;55611;48.602;9.490;2024-02-26T05:38:20;95020;;;10.9;56
68628;BME280;55611;48.602;9.490;2024-02-26T05:40:51;95030;;;11;56
68628;BME280;55611;48.602;9.490;2024-02-26T05:43:22;95030;;;11;56
68628;BME280;55611;48.602;9.490;2024-02-26T05:45:53;95040;;;11;56
68628;BME280;55611;48.602;9.490;2024-02-26T05:48:23;95030;;;10.9;56
68628;BME280;55611;48.602;9.490;2024-02-26T05:50:54;95040;;;10.8;56
68628;BME280;55611;48.602;9.490;2024-02-26T05:53:25;95030;;;10.9;56.5
68628;BME280;55611;48.602;9.490;2024-02-26T05:55:56;95030;;;10.9;56
68628;BME280;55611;48.602;9.490;2024-02-26T05:58:26;95040;;;10.9;56
68628;BME280;55611;48.602;9.490;2024-02-26T06:00:57;95040;;;10.9;56
68628;BME280;55611;48.602;9.490;2024-02-26T06:03:28;95050;;;11;56.5
68628;BME280;55611;48.602;9.490;2024-02-26T06:05:59;95050;;;11;56.5
68628;BME280;55611;48.602;9.490;2024-02-26T06:08:29;95060;;;11;56.5
68628;BME280;55611;48.602;9.490;2024-02-26T06:11:04;95060;;;11;56
68628;BME280;55611;48.602;9.490;2024-02-26T06:13:31;95060;;;10.9;56
68628;BME280;55611;48.602;9.490;2024-02-26T06:16:02;95060;;;10.8;56
68628;BME280;55611;48.602;9.490;2024-02-26T06:18:33;95060;;;10.8;56
68628;BME280;55611;48.602;9.490;2024-02-26T06:21:03;95070;;;10.8;56
68628;BME280;55611;48.602;9.490;2024-02-26T06:23:34;95070;;;10.8;56
68628;BME280;55611;48.602;9.490;2024-02-26T06:26:05;95070;;;10.8;56
68628;BME280;55611;48.602;9.490;2024-02-26T06:28:36;95080;;;10.8;56
68628;BME280;55611;48.602;9.490;2024-02-26T06:31:07;95090;;;10.7;56
68628;BME280;55611;48.602;9.490;2024-02-26T06:33:37;95090;;;10.7;56
68628;BME280;55611;48.602;9.490;2024-02-26T06:36:08;95090;;;10.7;56
68628;BME280;55611;48.602;9.490;2024-02-26T06:38:39;95100;;;10.7;56
68628;BME280;55611;48.602;9.490;2024-02-26T06:41:10;95100;;;10.7;56
68628;BME280;55611;48.602;9.490;2024-02-26T06:43:40;95100;;;10.6;56
68628;BME280;55611;48.602;9.490;2024-02-26T06:46:11;95110;;;10.6;56
68628;BME280;55611;48.602;9.490;2024-02-26T06:48:42;95110;;;10.6;56
68628;BME280;55611;48.602;9.490;2024-02-26T06:51:13;95110;;;10.5;56
68628;BME280;55611;48.602;9.490;2024-02-26T06:53:43;95110;;;10.5;56
68628;BME280;55611;48.602;9.490;2024-02-26T06:56:14;95110;;;10.4;56
68628;BME280;55611;48.602;9.490;2024-02-26T06:58:45;95110;;;10.4;56
68628;BME280;55611;48.602;9.490;2024-02-26T07:01:16;95120;;;10.4;56
68628;BME280;55611;48.602;9.490;2024-02-26T07:03:47;95120;;;10.5;56
68628;BME280;55611;48.602;9.490;2024-02-26T07:06:17;95120;;;10.5;56
68628;BME280;55611;48.602;9.490;2024-02-26T07:08:48;95130;;;10.5;56
68628;BME280;55611;48.602;9.490;2024-02-26T07:11:19;95130;;;10.4;56
68628;BME280;55611;48.602;9.490;2024-02-26T07:13:50;95140;;;10.5;56
68628;BME280;55611;48.602;9.490;2024-02-26T07:16:21;95140;;;10.5;56
68628;BME280;55611;48.602;9.490;2024-02-26T07:18:51;95150;;;10.6;56
68628;BME280;55611;48.602;9.490;2024-02-26T07:21:22;95150;;;10.6;56.5
68628;BME280;55611;48.602;9.490;2024-02-26T07:23:53;95140;;;10.7;56.5
68628;BME280;55611;48.602;9.490;2024-02-26T07:26:24;95150;;;10.7;56.5
68628;BME280;55611;48.602;9.490;2024-02-26T07:28:54;95150;;;10.8;56.5
68628;BME280;55611;48.602;9.490;2024-02-26T07:31:25;95160;;;10.9;56.5
68628;BME280;55611;48.602;9.490;2024-02-26T07:33:56;95160;;;10.9;56.5
68628;BME280;55611;48.602;9.490;2024-02-26T07:36:27;95160;;;11;56.5
68628;BME280;55611;48.602;9.490;2024-02-26T07:38:58;95170;;;11;56.5
68628;BME280;55611;48.602;9.490;2024-02-26T07:41:28;95170;;;11;56.5
68628;BME280;55611;48.602;9.490;2024-02-26T07:44:01;95170;;;11.1;56.5
68628;BME280;55611;48.602;9.490;2024-02-26T07:46:30;95180;;;11;56.5
68628;BME280;55611;48.602;9.490;2024-02-26T07:49:00;95180;;;11;56.5
68628;BME280;55611;48.602;9.490;2024-02-26T07:51:31;95180;;;11;56.5
68628;BME280;55611;48.602;9.490;2024-02-26T07:54:02;95180;;;11;56.5
68628;BME280;55611;48.602;9.490;2024-02-26T07:56:33;95180;;;11;56.5
68628;BME280;55611;48.602;9.490;2024-02-26T07:59:04;95180;;;11.1;56.5
68628;BME280;55611;48.602;9.490;2024-02-26T08:01:34;95190;;;11.1;56.5
68628;BME280;55611;48.602;9.490;2024-02-26T08:04:05;95190;;;11.2;56.5
68628;BME280;55611;48.602;9.490;2024-02-26T08:06:36;95190;;;11.2;56.5
68628;BME280;55611;48.602;9.490;2024-02-26T08:09:07;95200;;;11.3;56.5
68628;BME280;55611;48.602;9.490;2024-02-26T08:11:38;95200;;;11.4;56.5
68628;BME280;55611;48.602;9.490;2024-02-26T08:14:08;95190;;;11.4;56.5
68628;BME280;55611;48.602;9.490;2024-02-26T08:16:39;95190;;;11.4;56.5
68628;BME280;55611;48.602;9.490;2024-02-26T08:19:10;95200;;;11.4;56.5
68628;BME280;55611;48.602;9.490;2024-02-26T08:21:41;95190;;;11.4;56.5
68628;BME280;55611;48.602;9.490;2024-02-26T08:24:11;95190;;;11.6;56.5
68628;BME280;55611;48.602;9.490;2024-02-26T08:26:42;95190;;;11.7;56.5
68628;BME280;55611;48.602;9.490;2024-02-26T08:29:13;95180;;;11.7;56.5
68628;BME280;55611;48.602;9.490;2024-02-26T08:31:44;95180;;;11.7;56.5
68628;BME280;55611;48.602;9.490;2024-02-26T08:34:15;95180;;;11.8;56.5
68628;BME280;55611;48.602;9.490;2024-02-26T08:36:45;95180;;;11.8;56.5
68628;BME280;55611;48.602;9.490;2024-02-26T08:39:16;95180;;;11.8;56.5
68628;BME280;55611;48.602;9.490;2024-02-26T08:41:47;95170;;;11.8;56.5
68628;BME280;55611;48.602;9.490;2024-02-26T08:44:18;95170;;;11.8;56.5
68628;BME280;55611;48.602;9.490;2024-02-26T08:46:48;95180;;;11.6;56.5
68628;BME280;55611;48.602;9.490;2024-02-26T08:49:19;95180;;;11.6;56.5
68628;BME280;55611;48.602;9.490;2024-02-26T08:51:50;95180;;;11.6;56.5
68628;BME280;55611;48.602;9.490;2024-02-26T08:54:21;95180;;;11.7;56.5
68628;BME280;55611;48.602;9.490;2024-02-26T08:56:51;95190;;;11.7;56.5
68628;BME280;55611;48.602;9.490;2024-02-26T08:59:22;95180;;;11.7;56.5
68628;BME280;55611;48.602;9.490;2024-02-26T09:01:53;95180;;;11.8;56.5
68628;BME280;55611;48.602;9.490;2024-02-26T09:04:24;95180;;;11.8;56.5
68628;BME280;55611;48.602;9.490;2024-02-26T09:06:54;95170;;;11.9;56.5
68628;BME280;55611;48.602;9.490;2024-02-26T09:09:25;95180;;;11.9;56.5
68628;BME280;55611;48.602;9.490;2024-02-26T09:11:56;95180;;;12;56.5
68628;BME280;55611;48.602;9.490;2024-02-26T09:14:27;95180;;;12;56.5
68628;BME280;55611;48.602;9.490;2024-02-26T09:16:58;95180;;;12;56.5
68628;BME280;55611;48.602;9.490;2024-02-26T09:19:28;95180;;;12;56.5
68628;BME280;55611;48.602;9.490;2024-02-26T09:21:59;95180;;;12.1;56.5
68628;BME280;55611;48.602;9.490;2024-02-26T09:24:30;95180;;;12.1;56.5
68628;BME280;55611;48.602;9.490;2024-02-26T09:27:01;95180;;;12.1;56.5
68628;BME280;55611;48.602;9.490;2024-02-26T09:29:32;95170;;;12.2;56.5
68628;BME280;55611;48.602;9.490;2024-02-26T09:32:02;95170;;;12.3;56.5
68628;BME280;55611;48.602;9.490;2024-02-26T09:34:33;95170;;;12.3;56.5
68628;BME280;55611;48.602;9.490;2024-02-26T09:37:04;95170;;;12.4;56.5
68628;BME280;55611;48.602;9.490;2024-02-26T09:39:35;95170;;;12.5;56.5
68628;BME280;55611;48.602;9.490;2024-02-26T09:42:05;95180;;;12.6;56.5
68628;BME280;55611;48.602;9.490;2024-02-26T09:44:36;95180;;;12.6;56.5
68628;BME280;55611;48.602;9.490;2024-02-26T09:47:08;95180;;;12.7;56.5
68628;BME280;55611;48.602;9.490;2024-02-26T09:49:38;95180;;;12.8;56.5
68628;BME280;55611;48.602;9.490;2024-02-26T09:52:08;95180;;;12.9;56.5
68628;BME280;55611;48.602;9.490;2024-02-26T09:54:39;95180;;;13;56.5
68628;BME280;55611;48.602;9.490;2024-02-26T09:57:10;95190;;;13.2;56.5
68628;BME280;55611;48.602;9.490;2024-02-26T09:59:41;95190;;;13.3;56.5
68628;BME280;55611;48.602;9.490;2024-02-26T10:02:12;95190;;;13.4;56.5
68628;BME280;55611;48.602;9.490;2024-02-26T10:04:43;95190;;;13.4;56.5
68628;BME280;55611;48.602;9.490;2024-02-26T10:07:13;95190;;;13.5;56.5
68628;BME280;55611;48.602;9.490;2024-02-26T10:09:44;95200;;;13.6;56.5
68628;BME280;55611;48.602;9.490;2024-02-26T10:12:15;95200;;;13.6;56.5
68628;BME280;55611;48.602;9.490;2024-02-26T10:14:46;95210;;;13.7;56.5
68628;BME280;55611;48.602;9.490;2024-02-26T10:17:16;95210;;;13.7;56.5
68628;BME280;55611;48.602;9.490;2024-02-26T10:19:47;95210;;;13.7;56.5
68628;BME280;55611;48.602;9.490;2024-02-26T10:22:18;95210;;;13.8;56.5
68628;BME280;55611;48.602;9.490;2024-02-26T10:24:49;95200;;;13.9;56.5
68628;BME280;55611;48.602;9.490;2024-02-26T10:27:19;95200;;;14;56.5
68628;BME280;55611;48.602;9.490;2024-02-26T10:29:50;95200;;;14.1;56.5
68628;BME280;55611;48.602;9.490;2024-02-26T10:32:21;95200;;;14.3;56.5
68628;BME280;55611;48.602;9.490;2024-02-26T10:34:55;95190;;;14.4;56.5
68628;BME280;55611;48.602;9.490;2024-02-26T10:37:23;95200;;;14.5;56.5
68628;BME280;55611;48.602;9.490;2024-02-26T10:39:53;95200;;;14.6;56.5
68628;BME280;55611;48.602;9.490;2024-02-26T10:42:25;95200;;;14.6;56.5
68628;BME280;55611;48.602;9.490;2024-02-26T10:44:55;95200;;;14.5;56.5
68628;BME280;55611;48.602;9.490;2024-02-26T10:47:25;95200;;;14.6;56.5
68628;BME280;55611;48.602;9.490;2024-02-26T10:49:56;95190;;;14.7;56.5
68628;BME280;55611;48.602;9.490;2024-02-26T10:52:27;95190;;;14.7;56.5
68628;BME280;55611;48.602;9.490;2024-02-26T10:54:59;95190;;;14.8;56
68628;BME280;55611;48.602;9.490;2024-02-26T10:57:31;95190;;;14.9;56.5
68628;BME280;55611;48.602;9.490;2024-02-26T11:00:00;95190;;;14.9;56.5
68628;BME280;55611;48.602;9.490;2024-02-26T11:02:31;95190;;;15;56.5
68628;BME280;55611;48.602;9.490;2024-02-26T11:05:02;95190;;;15.1;56.5
68628;BME280;55611;48.602;9.490;2024-02-26T11:07:32;95190;;;15.3;56.5
68628;BME280;55611;48.602;9.490;2024-02-26T11:10:03;95200;;;15.4;56.5
68628;BME280;55611;48.602;9.490;2024-02-26T11:12:34;95200;;;15.5;56
68628;BME280;55611;48.602;9.490;2024-02-26T11:15:04;95210;;;15.5;56
68628;BME280;55611;48.602;9.490;2024-02-26T11:17:35;95200;;;15.6;56
68628;BME280;55611;48.602;9.490;2024-02-26T11:20:06;95200;;;15.5;56
68628;BME280;55611;48.602;9.490;2024-02-26T11:22:36;95210;;;15.5;56.5
68628;BME280;55611;48.602;9.490;2024-02-26T11:25:07;95200;;;15.6;56.5
68628;BME280;55611;48.602;9.490;2024-02-26T11:27:39;95200;;;15.7;56
68628;BME280;55611;48.602;9.490;2024-02-26T11:30:09;95200;;;15.8;56
68628;BME280;55611;48.602;9.490;2024-02-26T11:32:40;95200;;;15.9;56
68628;BME280;55611;48.602;9.490;2024-02-26T11:35:10;95200;;;15.9;56
68628;BME280;55611;48.602;9.490;2024-02-26T11:37:41;95210;;;15.9;56
68628;BME280;55611;48.602;9.490;2024-02-26T11:40:12;95210;;;15.8;56.5
68628;BME280;55611;48.602;9.490;2024-02-26T11:42:43;95210;;;15.8;56.5
68628;BME280;55611;48.602;9.490;2024-02-26T11:47:44;95210;;;15.8;56
68628;BME280;55611;48.602;9.490;2024-02-26T11:50:32;95210;;;15.8;56
68628;BME280;55611;48.602;9.490;2024-02-26T11:53:49;95220;;;15.8;56
68628;BME280;55611;48.602;9.490;2024-02-26T11:55:20;95220;;;15.9;56
68628;BME280;55611;48.602;9.490;2024-02-26T11:57:47;95220;;;16;56
68628;BME280;55611;48.602;9.490;2024-02-26T12:00:18;95230;;;16;56
68628;BME280;55611;48.602;9.490;2024-02-26T12:02:49;95230;;;16;56
68628;BME280;55611;48.602;9.490;2024-02-26T12:05:21;95220;;;16;56
68628;BME280;55611;48.602;9.490;2024-02-26T12:08:07;95230;;;16.1;56
68628;BME280;55611;48.602;9.490;2024-02-26T12:10:23;95230;;;16;56
68628;BME280;55611;48.602;9.490;2024-02-26T12:12:58;95230;;;16.1;56
68628;BME280;55611;48.602;9.490;2024-02-26T12:15:23;95230;;;16.3;56
68628;BME280;55611;48.602;9.490;2024-02-26T12:17:53;95230;;;16.3;56
68628;BME280;55611;48.602;9.490;2024-02-26T12:20:24;95230;;;16.3;56
68628;BME280;55611;48.602;9.490;2024-02-26T12:22:55;95240;;;16.3;56
68628;BME280;55611;48.602;9.490;2024-02-26T12:25:27;95240;;;16.4;56
68628;BME280;55611;48.602;9.490;2024-02-26T12:27:57;95240;;;16.3;56
68628;BME280;55611;48.602;9.490;2024-02-26T12:30:27;95240;;;16.4;56
68628;BME280;55611;48.602;9.490;2024-02-26T12:32:58;95230;;;16.3;56
68628;BME280;55611;48.602;9.490;2024-02-26T12:35:29;95230;;;16.3;56
68628;BME280;55611;48.602;9.490;2024-02-26T12:38:00;95230;;;16.3;56
68628;BME280;55611;48.602;9.490;2024-02-26T12:40:31;95230;;;16.4;56
68628;BME280;55611;48.602;9.490;2024-02-26T12:43:01;95240;;;16.4;56
68628;BME280;55611;48.602;9.490;2024-02-26T12:45:32;95240;;;16.4;56
68628;BME280;55611;48.602;9.490;2024-02-26T12:48:03;95240;;;16.3;56
68628;BME280;55611;48.602;9.490;2024-02-26T12:50:33;95240;;;16.3;56
68628;BME280;55611;48.602;9.490;2024-02-26T12:53:04;95240;;;16.4;56
68628;BME280;55611;48.602;9.490;2024-02-26T12:55:35;95240;;;16.5;56
68628;BME280;55611;48.602;9.490;2024-02-26T12:58:06;95250;;;16.5;56
68628;BME280;55611;48.602;9.490;2024-02-26T13:00:37;95250;;;16.5;56
68628;BME280;55611;48.602;9.490;2024-02-26T13:03:07;95250;;;16.5;56
68628;BME280;55611;48.602;9.490;2024-02-26T13:05:38;95250;;;16.5;56
68628;BME280;55611;48.602;9.490;2024-02-26T13:08:09;95250;;;16.4;56
68628;BME280;55611;48.602;9.490;2024-02-26T13:10:40;95260;;;16.5;56
68628;BME280;55611;48.602;9.490;2024-02-26T13:13:10;95260;;;16.4;56
68628;BME280;55611;48.602;9.490;2024-02-26T13:15:41;95260;;;16.4;56
68628;BME280;55611;48.602;9.490;2024-02-26T13:18:13;95260;;;16.4;56
68628;BME280;55611;48.602;9.490;2024-02-26T13:20:43;95260;;;16.4;56
68628;BME280;55611;48.602;9.490;2024-02-26T13:23:14;95270;;;16.5;56
68628;BME280;55611;48.602;9.490;2024-02-26T13:25:44;95270;;;16.4;56
68628;BME280;55611;48.602;9.490;2024-02-26T13:28:16;95270;;;16.4;56
68628;BME280;55611;48.602;9.490;2024-02-26T13:30:53;95270;;;16.4;55.5
68628;BME280;55611;48.602;9.490;2024-02-26T13:33:17;95260;;;16.3;55.5
68628;BME280;55611;48.602;9.490;2024-02-26T13:35:47;95270;;;16.2;56
68628;BME280;55611;48.602;9.490;2024-02-26T13:38:18;95270;;;16.1;56
68628;BME280;55611;48.602;9.490;2024-02-26T13:40:49;95270;;;16.1;56
68628;BME280;55611;48.602;9.490;2024-02-26T13:43:20;95270;;;16;56
68628;BME280;55611;48.602;9.490;2024-02-26T13:45:50;95270;;;16;56
68628;BME280;55611;48.602;9.490;2024-02-26T13:48:21;95270;;;16.1;56
68628;BME280;55611;48.602;9.490;2024-02-26T13:50:52;95270;;;16.2;56
68628;BME280;55611;48.602;9.490;2024-02-26T13:53:23;95270;;;16.2;56
68628;BME280;55611;48.602;9.490;2024-02-26T13:55:54;95270;;;16.2;56
68628;BME280;55611;48.602;9.490;2024-02-26T13:58:24;95270;;;16.2;56
68628;BME280;55611;48.602;9.490;2024-02-26T14:00:55;95270;;;16.2;56
68628;BME280;55611;48.602;9.490;2024-02-26T14:03:26;95260;;;16.3;56
68628;BME280;55611;48.602;9.490;2024-02-26T14:05:57;95270;;;16.4;56
68628;BME280;55611;48.602;9.490;2024-02-26T14:08:27;95270;;;16.4;56
68628;BME280;55611;48.602;9.490;2024-02-26T14:10:58;95270;;;16.5;56
68628;BME280;55611;48.602;9.490;2024-02-26T14:13:29;95270;;;16.6;56
68628;BME280;55611;48.602;9.490;2024-02-26T14:16:00;95270;;;16.6;56
68628;BME280;55611;48.602;9.490;2024-02-26T14:18:31;95270;;;16.5;56
68628;BME280;55611;48.602;9.490;2024-02-26T14:21:01;95270;;;16.5;56
68628;BME280;55611;48.602;9.490;2024-02-26T14:23:32;95270;;;16.4;56
68628;BME280;55611;48.602;9.490;2024-02-26T14:26:03;95270;;;16.4;56
68628;BME280;55611;48.602;9.490;2024-02-26T14:28:34;95260;;;16.3;56
68628;BME280;55611;48.602;9.490;2024-02-26T14:31:05;95260;;;16.3;56
68628;BME280;55611;48.602;9.490;2024-02-26T14:33:38;95260;;;16.2;56
68628;BME280;55611;48.602;9.490;2024-02-26T14:36:06;95260;;;16.2;56
68628;BME280;55611;48.602;9.490;2024-02-26T14:38:37;95260;;;16.2;56